Nimpkish II — VG4333 — position and weather

sailwx.info

Track history (hours):
 
Tides and Currents Weather Stations Pressure Air Temp Water Temp Dewpoint Dewpoint Depression Visibility Wind Speed Wind Dir Waves Ship Positions

Nimpkish II

Last reported at 2017-Oct-03 20:55 UTC. Time now 2017-Oct-22 10:28 UTC.
Position N 49°18' W 123°08'.
Warning: this ship's position is 18 days out of date.

Length 18 m.

Type: Pleasure craft. MMSI: 316006246.

Date/timePositionNaut miles runAvg speedWind from/ knotsBaromVisibWave heightAir tempDewpointWater temp
2017-Oct-03 20:55N 49°18' W 123°08'0 0.0
2017-Oct-03 20:28N 49°18' W 123°08'1 3.0
2017-Oct-03 20:00N 49°19' W 123°09'4 8.7
2017-Oct-03 19:30N 49°17' W 123°15'4 8.1
2017-Oct-03 19:00N 49°16' W 123°21'4 8.2
2017-Oct-03 18:30N 49°14' W 123°26'4 8.2
2017-Oct-03 17:58N 49°12' W 123°32'4 8.5
2017-Oct-03 17:31N 49°10' W 123°37'3 5.4
2017-Oct-03 16:58N 49°09' W 123°42'0 0.0
2017-Oct-03 14:49N 49°09' W 123°42'0 0.0
2017-Oct-03 12:43N 49°09' W 123°42'0 0.0
2017-Oct-03 11:07N 49°09' W 123°42'0 0.0
2017-Oct-03 10:31N 49°09' W 123°42'0 0.0
2017-Oct-03 10:28N 49°09' W 123°42'0 0.0
2017-Oct-03 09:43N 49°09' W 123°42'0 0.0
2017-Oct-03 09:28N 49°09' W 123°42'0 0.0
2017-Oct-03 08:37N 49°09' W 123°42'0 0.0
2017-Oct-03 07:37N 49°09' W 123°42'0 0.0
2017-Oct-03 07:19N 49°09' W 123°42'0 0.0
2017-Oct-03 06:58N 49°09' W 123°42'0 0.0
2017-Oct-03 01:46N 49°09' W 123°42'0 0.0
2017-Oct-03 01:28N 49°09' W 123°42'0 0.0
2017-Oct-03 00:46N 49°09' W 123°42'0 0.0
2017-Oct-03 00:28N 49°09' W 123°42'0 0.0
2017-Oct-02 23:58N 49°09' W 123°42'0 0.0
2017-Oct-02 23:16N 49°09' W 123°42'0 0.0
2017-Oct-02 22:04N 49°09' W 123°42'0 0.0
2017-Oct-02 21:37N 49°09' W 123°42'0 0.0
2017-Oct-02 21:25N 49°09' W 123°42'0 0.0
2017-Oct-02 20:55N 49°09' W 123°42'0 0.0
2017-Oct-02 20:28N 49°09' W 123°42'0 0.0
2017-Oct-02 19:52N 49°09' W 123°42'0 0.0
2017-Oct-02 19:25N 49°09' W 123°42'0 0.0
2017-Oct-02 18:55N 49°09' W 123°42'0 0.0
2017-Oct-02 16:58N 49°09' W 123°42'0 0.0
2017-Oct-02 16:25N 49°09' W 123°42'0 0.0
2017-Oct-02 15:55N 49°09' W 123°42'0 0.0
2017-Oct-02 15:25N 49°09' W 123°42'0 0.0
2017-Oct-02 14:49N 49°09' W 123°42'0 0.0
2017-Oct-02 14:10N 49°09' W 123°42'0 0.0
2017-Oct-02 13:55N 49°09' W 123°42'0 0.0
2017-Oct-02 13:25N 49°09' W 123°42'0 0.0
2017-Oct-02 12:52N 49°09' W 123°42'0 0.0
2017-Oct-02 11:19N 49°09' W 123°42'0 0.0
2017-Oct-02 10:55N 49°09' W 123°42'0 0.0
2017-Oct-02 10:25N 49°09' W 123°42'0 0.0
2017-Oct-02 09:55N 49°09' W 123°42'0 0.0
2017-Oct-02 09:25N 49°09' W 123°42'0 0.0
2017-Oct-02 08:55N 49°09' W 123°42'0 0.0
2017-Oct-02 08:25N 49°09' W 123°42'0 0.0
2017-Oct-02 07:55N 49°09' W 123°42'0 0.0
2017-Oct-02 07:25N 49°09' W 123°42'0 0.0
2017-Oct-02 06:43N 49°09' W 123°42'0 0.0
2017-Oct-02 06:19N 49°09' W 123°42'0 0.0
2017-Oct-02 05:55N 49°09' W 123°42'0 0.0
2017-Oct-02 05:28N 49°09' W 123°42'0 0.0
2017-Oct-02 04:55N 49°09' W 123°42'0 0.0
2017-Oct-02 01:49N 49°09' W 123°42'0 0.0
2017-Oct-02 01:22N 49°09' W 123°42'0 0.0
2017-Oct-02 00:55N 49°09' W 123°42'0 0.0
2017-Oct-02 00:22N 49°09' W 123°42'0 0.0
2017-Oct-01 23:56N 49°09' W 123°42'0 0.0
2017-Oct-01 23:29N 49°09' W 123°42'0 0.0
2017-Oct-01 22:44N 49°09' W 123°42'0 0.0
2017-Oct-01 22:26N 49°09' W 123°42'0 0.0
2017-Oct-01 21:50N 49°09' W 123°42'1 3.2
2017-Oct-01 21:29N 49°08' W 123°41'6 6.8
2017-Oct-01 20:36N 49°02' W 123°43'1 7.7
2017-Oct-01 20:25N 49°01' W 123°43'10 7.8
2017-Oct-01 19:09N 48°52' W 123°36'4 0.3
2017-Oct-01 03:27N 48°48' W 123°36'  
2017-Sep-27 19:46N 48°40' W 123°30'2 7.4
2017-Sep-27 19:30N 48°42' W 123°28'10 0.2
2017-Sep-25 19:54N 48°49' W 123°18'3 8.1
2017-Sep-25 19:30N 48°51' W 123°22'3 5.3
2017-Sep-25 19:00N 48°53' W 123°24'0 0.2
2017-Sep-25 18:29N 48°54' W 123°23'0 0.0
2017-Sep-25 17:59N 48°54' W 123°23'0 0.0
2017-Sep-25 17:29N 48°54' W 123°23'0 0.0
2017-Sep-25 16:59N 48°54' W 123°23'0 0.0
2017-Sep-25 16:29N 48°54' W 123°23'0 0.0
2017-Sep-25 15:59N 48°54' W 123°23'0 0.0
2017-Sep-25 15:29N 48°54' W 123°23'0 0.0
2017-Sep-25 14:59N 48°54' W 123°23'0 0.0
2017-Sep-25 14:29N 48°54' W 123°23'0 0.0
2017-Sep-25 13:59N 48°54' W 123°23'0 0.0
2017-Sep-25 13:29N 48°54' W 123°23'0 0.0
2017-Sep-25 12:59N 48°54' W 123°23'0 0.0
2017-Sep-25 12:29N 48°54' W 123°23'0 0.0
2017-Sep-25 11:59N 48°54' W 123°23'0 0.0
2017-Sep-25 11:29N 48°54' W 123°23'0 0.0
2017-Sep-25 10:59N 48°54' W 123°23'0 0.0
2017-Sep-25 10:29N 48°54' W 123°23'0 0.0
2017-Sep-25 09:59N 48°54' W 123°23'0 0.0
2017-Sep-25 09:29N 48°54' W 123°23'0 0.0
2017-Sep-25 08:59N 48°54' W 123°23'0 0.0
2017-Sep-25 08:29N 48°54' W 123°23'0 0.0
2017-Sep-25 07:59N 48°54' W 123°23'0 0.0
2017-Sep-25 07:29N 48°54' W 123°23'0 0.0
2017-Sep-25 06:59N 48°54' W 123°23'0 0.0
2017-Sep-25 06:29N 48°54' W 123°23'0 0.0
2017-Sep-25 05:59N 48°54' W 123°23'0 0.0
2017-Sep-25 05:29N 48°54' W 123°23'0 0.0
2017-Sep-25 04:59N 48°54' W 123°23'0 0.0
2017-Sep-25 04:29N 48°54' W 123°23'0 0.0
2017-Sep-25 03:59N 48°54' W 123°23'0 0.0
2017-Sep-25 03:29N 48°54' W 123°23'0 0.0
2017-Sep-25 02:59N 48°54' W 123°23'0 0.0
2017-Sep-25 02:29N 48°54' W 123°23'0 0.0
2017-Sep-25 01:59N 48°54' W 123°23'0 0.0
2017-Sep-25 01:29N 48°54' W 123°23'0 0.0
2017-Sep-25 00:59N 48°54' W 123°23'0 0.0
2017-Sep-25 00:29N 48°54' W 123°23'0 0.0
2017-Sep-24 23:59N 48°54' W 123°23'0 0.0
2017-Sep-24 23:29N 48°54' W 123°23'0 0.0
2017-Sep-24 22:59N 48°54' W 123°23'0 0.0
2017-Sep-24 22:29N 48°54' W 123°23'0 0.0
2017-Sep-24 21:59N 48°54' W 123°23'0 0.0
2017-Sep-24 21:29N 48°54' W 123°23'0 0.0
2017-Sep-24 20:59N 48°54' W 123°23'0 0.0
2017-Sep-24 20:26N 48°54' W 123°23'0 0.0
2017-Sep-24 19:59N 48°54' W 123°23'0 0.0
2017-Sep-24 19:29N 48°54' W 123°23'0 0.0
2017-Sep-24 18:59N 48°54' W 123°23'0 0.0
2017-Sep-24 18:29N 48°54' W 123°23'0 0.0
2017-Sep-24 17:50N 48°54' W 123°23'0 0.0
2017-Sep-24 17:26N 48°54' W 123°23'0 0.0
2017-Sep-24 16:56N 48°54' W 123°23'0 0.0
2017-Sep-24 16:20N 48°54' W 123°23'0 0.0
2017-Sep-24 15:50N 48°54' W 123°23'0 0.0
2017-Sep-24 15:26N 48°54' W 123°23'0 0.0
2017-Sep-24 14:56N 48°54' W 123°23'0 0.0
2017-Sep-24 14:29N 48°54' W 123°23'0 0.0
2017-Sep-24 13:59N 48°54' W 123°23'0 0.0
2017-Sep-24 13:26N 48°54' W 123°23'0 0.0
2017-Sep-24 12:56N 48°54' W 123°23'0 0.0
2017-Sep-24 12:26N 48°54' W 123°23'0 0.0
2017-Sep-24 11:59N 48°54' W 123°23'0 0.0
2017-Sep-24 11:26N 48°54' W 123°23'0 0.0
2017-Sep-24 10:59N 48°54' W 123°23'0 0.0
2017-Sep-24 10:26N 48°54' W 123°23'0 0.0
2017-Sep-24 09:50N 48°54' W 123°23'0 0.0
2017-Sep-24 09:29N 48°54' W 123°23'0 0.0
2017-Sep-24 08:56N 48°54' W 123°23'0 0.0
2017-Sep-24 08:26N 48°54' W 123°23'0 0.0
2017-Sep-24 07:44N 48°54' W 123°23'0 0.0
2017-Sep-24 07:26N 48°54' W 123°23'0 0.0
2017-Sep-24 06:56N 48°54' W 123°23'0 0.0
2017-Sep-24 06:26N 48°54' W 123°23'0 0.0
2017-Sep-24 05:56N 48°54' W 123°23'0 0.0
2017-Sep-24 05:26N 48°54' W 123°23'0 0.0
2017-Sep-24 04:56N 48°54' W 123°23'0 0.0
2017-Sep-24 04:29N 48°54' W 123°23'0 0.0
2017-Sep-24 03:56N 48°54' W 123°23'0 0.0
2017-Sep-24 03:29N 48°54' W 123°23'0 0.0
2017-Sep-24 02:56N 48°54' W 123°23'0 0.0
2017-Sep-24 02:26N 48°54' W 123°23'0 0.0
2017-Sep-24 01:56N 48°54' W 123°23'0 0.0
2017-Sep-24 01:26N 48°54' W 123°23'0 0.0
2017-Sep-24 00:56N 48°54' W 123°23'0 0.0
2017-Sep-24 00:14N 48°54' W 123°23'0 0.0
2017-Sep-23 23:56N 48°54' W 123°23'0 0.0
2017-Sep-23 23:26N 48°54' W 123°23'0 0.0
2017-Sep-23 22:59N 48°54' W 123°23'0 0.0
2017-Sep-23 22:26N 48°54' W 123°23'0 0.0
2017-Sep-23 21:56N 48°54' W 123°23'0 0.0
2017-Sep-23 21:26N 48°54' W 123°23'0 0.0
2017-Sep-23 20:56N 48°54' W 123°23'  
Track history (hours):
 
Tides and Currents Weather Stations Pressure Air Temp Water Temp Dewpoint Dewpoint Depression Visibility Wind Speed Wind Dir Waves Ship Positions

Nimpkish II

Last reported at 2017-Oct-03 20:55 UTC. Time now 2017-Oct-22 10:28 UTC.
Position N 49°18' W 123°08'.
Warning: this ship's position is 18 days out of date.

Length 18 m.

Type: Pleasure craft. MMSI: 316006246.

Date/timePositionNaut miles runAvg speedWind from/ knotsBaromVisibWave heightAir tempDewpointWater temp
2017-Oct-03 20:55N 49°18' W 123°08'0 0.0
2017-Oct-03 20:28N 49°18' W 123°08'1 3.0
2017-Oct-03 20:00N 49°19' W 123°09'4 8.7
2017-Oct-03 19:30N 49°17' W 123°15'4 8.1
2017-Oct-03 19:00N 49°16' W 123°21'4 8.2
2017-Oct-03 18:30N 49°14' W 123°26'4 8.2
2017-Oct-03 17:58N 49°12' W 123°32'4 8.5
2017-Oct-03 17:31N 49°10' W 123°37'3 5.4
2017-Oct-03 16:58N 49°09' W 123°42'0 0.0
2017-Oct-03 14:49N 49°09' W 123°42'0 0.0
2017-Oct-03 12:43N 49°09' W 123°42'0 0.0
2017-Oct-03 11:07N 49°09' W 123°42'0 0.0
2017-Oct-03 10:31N 49°09' W 123°42'0 0.0
2017-Oct-03 10:28N 49°09' W 123°42'0 0.0
2017-Oct-03 09:43N 49°09' W 123°42'0 0.0
2017-Oct-03 09:28N 49°09' W 123°42'0 0.0
2017-Oct-03 08:37N 49°09' W 123°42'0 0.0
2017-Oct-03 07:37N 49°09' W 123°42'0 0.0
2017-Oct-03 07:19N 49°09' W 123°42'0 0.0
2017-Oct-03 06:58N 49°09' W 123°42'0 0.0
2017-Oct-03 01:46N 49°09' W 123°42'0 0.0
2017-Oct-03 01:28N 49°09' W 123°42'0 0.0
2017-Oct-03 00:46N 49°09' W 123°42'0 0.0
2017-Oct-03 00:28N 49°09' W 123°42'0 0.0
2017-Oct-02 23:58N 49°09' W 123°42'0 0.0
2017-Oct-02 23:16N 49°09' W 123°42'0 0.0
2017-Oct-02 22:04N 49°09' W 123°42'0 0.0
2017-Oct-02 21:37N 49°09' W 123°42'0 0.0
2017-Oct-02 21:25N 49°09' W 123°42'0 0.0
2017-Oct-02 20:55N 49°09' W 123°42'0 0.0
2017-Oct-02 20:28N 49°09' W 123°42'0 0.0
2017-Oct-02 19:52N 49°09' W 123°42'0 0.0
2017-Oct-02 19:25N 49°09' W 123°42'0 0.0
2017-Oct-02 18:55N 49°09' W 123°42'0 0.0
2017-Oct-02 16:58N 49°09' W 123°42'0 0.0
2017-Oct-02 16:25N 49°09' W 123°42'0 0.0
2017-Oct-02 15:55N 49°09' W 123°42'0 0.0
2017-Oct-02 15:25N 49°09' W 123°42'0 0.0
2017-Oct-02 14:49N 49°09' W 123°42'0 0.0
2017-Oct-02 14:10N 49°09' W 123°42'0 0.0
2017-Oct-02 13:55N 49°09' W 123°42'0 0.0
2017-Oct-02 13:25N 49°09' W 123°42'0 0.0
2017-Oct-02 12:52N 49°09' W 123°42'0 0.0
2017-Oct-02 11:19N 49°09' W 123°42'0 0.0
2017-Oct-02 10:55N 49°09' W 123°42'0 0.0
2017-Oct-02 10:25N 49°09' W 123°42'0 0.0
2017-Oct-02 09:55N 49°09' W 123°42'0 0.0
2017-Oct-02 09:25N 49°09' W 123°42'0 0.0
2017-Oct-02 08:55N 49°09' W 123°42'0 0.0
2017-Oct-02 08:25N 49°09' W 123°42'0 0.0
2017-Oct-02 07:55N 49°09' W 123°42'0 0.0
2017-Oct-02 07:25N 49°09' W 123°42'0 0.0
2017-Oct-02 06:43N 49°09' W 123°42'0 0.0
2017-Oct-02 06:19N 49°09' W 123°42'0 0.0
2017-Oct-02 05:55N 49°09' W 123°42'0 0.0
2017-Oct-02 05:28N 49°09' W 123°42'0 0.0
2017-Oct-02 04:55N 49°09' W 123°42'0 0.0
2017-Oct-02 01:49N 49°09' W 123°42'0 0.0
2017-Oct-02 01:22N 49°09' W 123°42'0 0.0
2017-Oct-02 00:55N 49°09' W 123°42'0 0.0
2017-Oct-02 00:22N 49°09' W 123°42'0 0.0
2017-Oct-01 23:56N 49°09' W 123°42'0 0.0
2017-Oct-01 23:29N 49°09' W 123°42'0 0.0
2017-Oct-01 22:44N 49°09' W 123°42'0 0.0
2017-Oct-01 22:26N 49°09' W 123°42'0 0.0
2017-Oct-01 21:50N 49°09' W 123°42'1 3.2
2017-Oct-01 21:29N 49°08' W 123°41'6 6.8
2017-Oct-01 20:36N 49°02' W 123°43'1 7.7
2017-Oct-01 20:25N 49°01' W 123°43'10 7.8
2017-Oct-01 19:09N 48°52' W 123°36'4 0.3
2017-Oct-01 03:27N 48°48' W 123°36'  
2017-Sep-27 19:46N 48°40' W 123°30'2 7.4
2017-Sep-27 19:30N 48°42' W 123°28'10 0.2
2017-Sep-25 19:54N 48°49' W 123°18'3 8.1
2017-Sep-25 19:30N 48°51' W 123°22'3 5.3
2017-Sep-25 19:00N 48°53' W 123°24'0 0.2
2017-Sep-25 18:29N 48°54' W 123°23'0 0.0
2017-Sep-25 17:59N 48°54' W 123°23'0 0.0
2017-Sep-25 17:29N 48°54' W 123°23'0 0.0
2017-Sep-25 16:59N 48°54' W 123°23'0 0.0
2017-Sep-25 16:29N 48°54' W 123°23'0 0.0
2017-Sep-25 15:59N 48°54' W 123°23'0 0.0
2017-Sep-25 15:29N 48°54' W 123°23'0 0.0
2017-Sep-25 14:59N 48°54' W 123°23'0 0.0
2017-Sep-25 14:29N 48°54' W 123°23'0 0.0
2017-Sep-25 13:59N 48°54' W 123°23'0 0.0
2017-Sep-25 13:29N 48°54' W 123°23'0 0.0
2017-Sep-25 12:59N 48°54' W 123°23'0 0.0
2017-Sep-25 12:29N 48°54' W 123°23'0 0.0
2017-Sep-25 11:59N 48°54' W 123°23'0 0.0
2017-Sep-25 11:29N 48°54' W 123°23'0 0.0
2017-Sep-25 10:59N 48°54' W 123°23'0 0.0
2017-Sep-25 10:29N 48°54' W 123°23'0 0.0
2017-Sep-25 09:59N 48°54' W 123°23'0 0.0
2017-Sep-25 09:29N 48°54' W 123°23'0 0.0
2017-Sep-25 08:59N 48°54' W 123°23'0 0.0
2017-Sep-25 08:29N 48°54' W 123°23'0 0.0
2017-Sep-25 07:59N 48°54' W 123°23'0 0.0
2017-Sep-25 07:29N 48°54' W 123°23'0 0.0
2017-Sep-25 06:59N 48°54' W 123°23'0 0.0
2017-Sep-25 06:29N 48°54' W 123°23'0 0.0
2017-Sep-25 05:59N 48°54' W 123°23'0 0.0
2017-Sep-25 05:29N 48°54' W 123°23'0 0.0
2017-Sep-25 04:59N 48°54' W 123°23'0 0.0
2017-Sep-25 04:29N 48°54' W 123°23'0 0.0
2017-Sep-25 03:59N 48°54' W 123°23'0 0.0
2017-Sep-25 03:29N 48°54' W 123°23'0 0.0
2017-Sep-25 02:59N 48°54' W 123°23'0 0.0
2017-Sep-25 02:29N 48°54' W 123°23'0 0.0
2017-Sep-25 01:59N 48°54' W 123°23'0 0.0
2017-Sep-25 01:29N 48°54' W 123°23'0 0.0
2017-Sep-25 00:59N 48°54' W 123°23'0 0.0
2017-Sep-25 00:29N 48°54' W 123°23'0 0.0
2017-Sep-24 23:59N 48°54' W 123°23'0 0.0
2017-Sep-24 23:29N 48°54' W 123°23'0 0.0
2017-Sep-24 22:59N 48°54' W 123°23'0 0.0
2017-Sep-24 22:29N 48°54' W 123°23'0 0.0
2017-Sep-24 21:59N 48°54' W 123°23'0 0.0
2017-Sep-24 21:29N 48°54' W 123°23'0 0.0
2017-Sep-24 20:59N 48°54' W 123°23'0 0.0
2017-Sep-24 20:26N 48°54' W 123°23'0 0.0
2017-Sep-24 19:59N 48°54' W 123°23'0 0.0
2017-Sep-24 19:29N 48°54' W 123°23'0 0.0
2017-Sep-24 18:59N 48°54' W 123°23'0 0.0
2017-Sep-24 18:29N 48°54' W 123°23'0 0.0
2017-Sep-24 17:50N 48°54' W 123°23'0 0.0
2017-Sep-24 17:26N 48°54' W 123°23'0 0.0
2017-Sep-24 16:56N 48°54' W 123°23'0 0.0
2017-Sep-24 16:20N 48°54' W 123°23'0 0.0
2017-Sep-24 15:50N 48°54' W 123°23'0 0.0
2017-Sep-24 15:26N 48°54' W 123°23'0 0.0
2017-Sep-24 14:56N 48°54' W 123°23'0 0.0
2017-Sep-24 14:29N 48°54' W 123°23'0 0.0
2017-Sep-24 13:59N 48°54' W 123°23'0 0.0
2017-Sep-24 13:26N 48°54' W 123°23'0 0.0
2017-Sep-24 12:56N 48°54' W 123°23'0 0.0
2017-Sep-24 12:26N 48°54' W 123°23'0 0.0
2017-Sep-24 11:59N 48°54' W 123°23'0 0.0
2017-Sep-24 11:26N 48°54' W 123°23'0 0.0
2017-Sep-24 10:59N 48°54' W 123°23'0 0.0
2017-Sep-24 10:26N 48°54' W 123°23'0 0.0
2017-Sep-24 09:50N 48°54' W 123°23'0 0.0
2017-Sep-24 09:29N 48°54' W 123°23'0 0.0
2017-Sep-24 08:56N 48°54' W 123°23'0 0.0
2017-Sep-24 08:26N 48°54' W 123°23'0 0.0
2017-Sep-24 07:44N 48°54' W 123°23'0 0.0
2017-Sep-24 07:26N 48°54' W 123°23'0 0.0
2017-Sep-24 06:56N 48°54' W 123°23'0 0.0
2017-Sep-24 06:26N 48°54' W 123°23'0 0.0
2017-Sep-24 05:56N 48°54' W 123°23'0 0.0
2017-Sep-24 05:26N 48°54' W 123°23'0 0.0
2017-Sep-24 04:56N 48°54' W 123°23'0 0.0
2017-Sep-24 04:29N 48°54' W 123°23'0 0.0
2017-Sep-24 03:56N 48°54' W 123°23'0 0.0
2017-Sep-24 03:29N 48°54' W 123°23'0 0.0
2017-Sep-24 02:56N 48°54' W 123°23'0 0.0
2017-Sep-24 02:26N 48°54' W 123°23'0 0.0
2017-Sep-24 01:56N 48°54' W 123°23'0 0.0
2017-Sep-24 01:26N 48°54' W 123°23'0 0.0
2017-Sep-24 00:56N 48°54' W 123°23'0 0.0
2017-Sep-24 00:14N 48°54' W 123°23'0 0.0
2017-Sep-23 23:56N 48°54' W 123°23'0 0.0
2017-Sep-23 23:26N 48°54' W 123°23'0 0.0
2017-Sep-23 22:59N 48°54' W 123°23'0 0.0
2017-Sep-23 22:26N 48°54' W 123°23'0 0.0
2017-Sep-23 21:56N 48°54' W 123°23'0 0.0
2017-Sep-23 21:26N 48°54' W 123°23'0 0.0
2017-Sep-23 20:56N 48°54' W 123°23'  

Dump ship's entire track history